Time;durP1;ratioP1;P1;durP2;ratioP2;P2;SDS_P1;SDS_P2;PMS_P1;PMS_P2;Temp;Humidity;BMP_temperature;BMP_pressure;BME280_temperature;BME280_humidity;BME280_pressure;Samples;Min_cycle;Max_cycle;Signal;HPM_P1;HPM_P2
2022/05/04 00:01:36;;;;;;;28.80;26.70;;;11.60;91.60;;;;;;5153419;27;20450;-74
2022/05/04 00:04:03;;;;;;;28.60;26.80;;;11.70;91.30;;;;;;5153731;27;21014;-74
2022/05/04 00:06:30;;;;;;;28.30;26.40;;;11.60;91.10;;;;;;5153552;27;20965;-74
2022/05/04 00:08:57;;;;;;;27.03;25.43;;;11.60;91.40;;;;;;5153760;27;20546;-74
2022/05/04 00:11:24;;;;;;;27.53;25.63;;;11.60;91.50;;;;;;5153270;27;20523;-75
2022/05/04 00:13:51;;;;;;;27.40;25.70;;;11.50;91.70;;;;;;5157018;27;20475;-74
2022/05/04 00:16:19;;;;;;;28.10;26.30;;;11.40;92.00;;;;;;5157681;27;20450;-74
2022/05/04 00:18:46;;;;;;;27.23;25.63;;;11.40;92.30;;;;;;5157569;27;20530;-74
2022/05/04 00:21:13;;;;;;;27.30;25.60;;;11.40;92.30;;;;;;5156824;27;20471;-74
2022/05/04 00:23:40;;;;;;;28.13;26.33;;;11.40;92.30;;;;;;5157442;27;20557;-74
2022/05/04 00:26:07;;;;;;;27.33;25.67;;;11.40;92.10;;;;;;5157440;27;20475;-74
2022/05/04 00:28:34;;;;;;;28.23;26.23;;;11.40;92.20;;;;;;5157418;27;20450;-74
2022/05/04 00:31:00;;;;;;;27.17;25.57;;;11.40;92.10;;;;;;5156464;27;20459;-74
2022/05/04 00:33:29;;;;;;;28.20;26.50;;;11.30;92.20;;;;;;5157449;27;20467;-74
2022/05/04 00:35:56;;;;;;;27.97;25.97;;;11.30;92.30;;;;;;5156959;27;20897;-74
2022/05/04 00:38:22;;;;;;;27.70;26.00;;;11.40;92.00;;;;;;5157291;27;20442;-75
2022/05/04 00:40:49;;;;;;;27.03;25.23;;;11.30;91.90;;;;;;5156507;27;21082;-75
2022/05/04 00:43:23;;;;;;;26.73;25.13;;;11.30;91.90;;;;;;5157147;27;20534;-75
2022/05/04 00:45:51;;;;;;;26.70;24.90;;;11.40;91.50;;;;;;5157179;27;20475;-75
2022/05/04 00:48:18;;;;;;;27.73;25.90;;;11.40;91.60;;;;;;5157015;27;20450;-74
2022/05/04 00:50:49;;;;;;;28.10;26.33;;;11.40;91.40;;;;;;5156638;27;20453;-74
2022/05/04 00:53:17;;;;;;;27.60;26.00;;;11.30;91.40;;;;;;5157213;27;20485;-74
2022/05/04 00:55:45;;;;;;;28.60;26.80;;;11.30;91.60;;;;;;5157025;27;20458;-74
2022/05/04 01:01:00;;;;;;;28.03;26.33;;;11.20;91.50;;;;;;5156546;27;20982;-74
2022/05/04 01:03:27;;;;;;;27.10;25.33;;;11.30;91.40;;;;;;5156886;27;20467;-74
2022/05/04 01:05:55;;;;;;;28.60;26.90;;;11.20;91.80;;;;;;5156790;27;20447;-74
2022/05/04 01:08:22;;;;;;;28.33;26.63;;;11.20;92.10;;;;;;5156846;27;20733;-75
2022/05/04 01:10:49;;;;;;;28.47;26.77;;;11.10;92.40;;;;;;5157057;27;20447;-75
2022/05/04 01:13:19;;;;;;;28.57;26.67;;;11.10;92.50;;;;;;5167787;27;20534;-75
2022/05/04 01:15:47;;;;;;;27.50;25.90;;;11.10;92.40;;;;;;5166280;27;20459;-74
2022/05/04 01:18:14;;;;;;;28.20;26.20;;;11.10;92.40;;;;;;5165294;27;20451;-74
2022/05/04 01:20:41;;;;;;;29.13;27.33;;;11.10;92.30;;;;;;5156097;27;20471;-74
2022/05/04 01:23:09;;;;;;;28.50;26.60;;;11.10;91.80;;;;;;5156083;27;20461;-74
2022/05/04 01:25:36;;;;;;;27.73;26.03;;;11.10;91.50;;;;;;5155805;27;20451;-74
2022/05/04 01:28:04;;;;;;;28.13;26.43;;;11.00;91.40;;;;;;5156372;27;20451;-74
2022/05/04 01:30:32;;;;;;;27.50;25.70;;;11.00;91.30;;;;;;5155143;27;20463;-74
2022/05/04 01:32:59;;;;;;;27.20;25.30;;;10.90;91.90;;;;;;5156272;27;20455;-74
2022/05/04 01:35:26;;;;;;;27.00;25.30;;;10.80;92.10;;;;;;5156118;27;20493;-74
2022/05/04 01:37:53;;;;;;;27.90;26.03;;;10.90;92.00;;;;;;5156224;27;20455;-74
2022/05/04 01:40:21;;;;;;;28.40;26.60;;;10.90;91.50;;;;;;5155554;27;20482;-74
2022/05/04 01:42:48;;;;;;;27.77;25.97;;;10.90;91.10;;;;;;5156087;27;20447;-74
2022/05/04 01:45:15;;;;;;;27.57;25.67;;;10.80;91.30;;;;;;5155876;27;20498;-74
2022/05/04 01:47:46;;;;;;;28.53;26.43;;;10.70;91.30;;;;;;5155896;27;20447;-74
2022/05/04 01:50:13;;;;;;;28.10;26.20;;;10.60;91.70;;;;;;5155112;27;20527;-74
2022/05/04 01:52:40;;;;;;;29.00;27.30;;;10.60;92.10;;;;;;5155770;27;20450;-74
2022/05/04 01:55:08;;;;;;;28.03;26.23;;;10.60;92.60;;;;;;5155854;27;20466;-74
2022/05/04 01:57:37;;;;;;;27.93;26.03;;;10.60;92.60;;;;;;5155763;27;20537;-74
2022/05/04 02:00:06;;;;;;;27.57;25.87;;;10.60;92.30;;;;;;5155149;27;20479;-74
2022/05/04 02:02:34;;;;;;;28.67;26.83;;;10.60;92.30;;;;;;5155326;27;20851;-74
2022/05/04 02:05:01;;;;;;;28.63;26.73;;;10.70;92.00;;;;;;5155569;27;20475;-74
2022/05/04 02:07:28;;;;;;;27.43;25.73;;;10.70;92.00;;;;;;5155643;27;20944;-74
2022/05/04 02:09:56;;;;;;;28.02;26.23;;;10.60;92.10;;;;;;5154825;27;20932;-74
2022/05/04 02:12:23;;;;;;;27.77;26.07;;;10.60;92.50;;;;;;5155278;27;20198;-74
2022/05/04 02:14:52;;;;;;;28.90;27.10;;;10.60;92.60;;;;;;5155258;27;20470;-74
2022/05/04 02:17:19;;;;;;;29.20;27.40;;;10.60;92.90;;;;;;5155173;27;20785;-74
2022/05/04 02:19:46;;;;;;;27.97;26.27;;;10.60;93.00;;;;;;5154868;27;20498;-74
2022/05/04 02:22:13;;;;;;;28.27;26.57;;;10.60;92.70;;;;;;5155055;27;21003;-74
2022/05/04 02:24:40;;;;;;;27.53;25.70;;;10.70;92.30;;;;;;5154985;27;20469;-74
2022/05/04 02:27:07;;;;;;;29.90;28.10;;;10.70;92.00;;;;;;5155164;27;20498;-74
2022/05/04 02:29:34;;;;;;;27.77;26.07;;;10.60;92.30;;;;;;5154156;27;20944;-74
2022/05/04 02:32:02;;;;;;;29.03;27.23;;;10.60;92.50;;;;;;5155069;27;20991;-74
2022/05/04 02:34:29;;;;;;;29.27;27.47;;;10.70;92.50;;;;;;5154907;27;20503;-74
2022/05/04 02:39:40;;;;;;;29.70;27.70;;;10.70;93.10;;;;;;5154385;27;20430;-74
2022/05/04 02:42:07;;;;;;;29.03;27.13;;;10.80;92.60;;;;;;5154600;27;20558;-74
2022/05/04 02:44:34;;;;;;;27.90;26.20;;;10.80;92.30;;;;;;5154814;27;20489;-74
2022/05/04 02:47:02;;;;;;;29.33;27.50;;;10.90;92.10;;;;;;5154797;27;20458;-74
2022/05/04 02:49:29;;;;;;;27.60;25.90;;;10.90;92.30;;;;;;5154286;27;20936;-74
2022/05/04 02:51:56;;;;;;;28.20;26.50;;;10.90;92.40;;;;;;5154741;27;20451;-74
2022/05/04 02:54:23;;;;;;;28.53;26.83;;;10.90;92.30;;;;;;5154665;27;20466;-74
2022/05/04 02:56:50;;;;;;;27.80;26.10;;;10.90;92.40;;;;;;5154676;27;20542;-74
2022/05/04 02:59:17;;;;;;;29.30;27.50;;;11.00;92.70;;;;;;5154238;27;20438;-74
2022/05/04 03:04:34;;;;;;;29.70;27.63;;;11.00;93.00;;;;;;5154802;27;20454;-74
2022/05/04 03:07:00;;;;;;;30.37;28.23;;;11.10;93.00;;;;;;5154585;27;20825;-74
2022/05/04 03:09:27;;;;;;;32.37;29.70;;;11.10;92.80;;;;;;5154871;27;20545;-74
2022/05/04 03:11:57;;;;;;;29.23;27.33;;;11.20;92.40;;;;;;5155643;27;20880;-74
2022/05/04 03:14:26;;;;;;;30.47;28.57;;;11.20;92.30;;;;;;5155625;27;20960;-74
2022/05/04 03:16:53;;;;;;;28.57;26.87;;;11.20;91.90;;;;;;5155014;27;20443;-74
2022/05/04 03:19:20;;;;;;;29.47;27.63;;;11.30;91.30;;;;;;5154882;27;20459;-74
2022/05/04 03:21:48;;;;;;;28.90;27.10;;;11.30;91.10;;;;;;5154379;27;20983;-74
2022/05/04 03:24:15;;;;;;;30.40;28.50;;;11.20;91.80;;;;;;5155494;27;20967;-74
2022/05/04 03:26:43;;;;;;;29.20;27.30;;;11.20;91.80;;;;;;5155619;27;20537;-75
2022/05/04 03:29:10;;;;;;;30.07;27.97;;;11.20;91.70;;;;;;5159184;27;20548;-74
2022/05/04 03:31:38;;;;;;;29.97;27.97;;;11.30;91.60;;;;;;5167996;27;20459;-75
2022/05/04 03:34:05;;;;;;;30.13;28.07;;;11.30;91.50;;;;;;5167345;27;20470;-74
2022/05/04 03:36:35;;;;;;;30.83;28.83;;;11.40;91.80;;;;;;5161389;27;20458;-74
2022/05/04 03:39:03;;;;;;;30.47;28.50;;;11.40;91.90;;;;;;5153947;27;20451;-74
2022/05/04 03:41:31;;;;;;;30.27;28.10;;;11.40;91.80;;;;;;5153414;27;20475;-74
2022/05/04 03:43:58;;;;;;;30.70;28.73;;;11.50;91.70;;;;;;5153661;27;20975;-74
2022/05/04 03:46:26;;;;;;;31.17;29.23;;;11.50;91.60;;;;;;5153606;27;20530;-74
2022/05/04 03:48:54;;;;;;;31.37;29.00;;;11.50;91.70;;;;;;5153346;27;20963;-74
2022/05/04 03:51:21;;;;;;;30.10;28.20;;;11.50;91.80;;;;;;5153394;27;20493;-74
2022/05/04 03:53:48;;;;;;;30.97;29.13;;;11.50;91.70;;;;;;5153770;27;20473;-74
2022/05/04 03:56:17;;;;;;;30.70;28.57;;;11.50;91.60;;;;;;5153695;27;20458;-74
2022/05/04 03:58:45;;;;;;;30.00;27.80;;;11.60;91.30;;;;;;5153765;27;20504;-74
2022/05/04 04:01:13;;;;;;;29.37;27.47;;;11.50;90.60;;;;;;5153119;27;20520;-74
2022/05/04 04:03:40;;;;;;;29.23;27.30;;;11.50;90.80;;;;;;5153578;27;20561;-75
2022/05/04 04:06:07;;;;;;;30.97;28.50;;;11.50;90.60;;;;;;5153670;27;20944;-74
2022/05/04 04:08:34;;;;;;;31.47;29.43;;;11.50;90.40;;;;;;5153528;27;20823;-74
2022/05/04 04:11:01;;;;;;;30.10;28.20;;;11.50;90.60;;;;;;5153013;27;20474;-75
2022/05/04 04:13:29;;;;;;;31.23;29.23;;;11.50;91.00;;;;;;5153523;27;20477;-75
2022/05/04 04:15:57;;;;;;;29.67;27.77;;;11.50;91.20;;;;;;5153350;27;20534;-75
2022/05/04 04:18:25;;;;;;;29.90;27.93;;;11.60;91.00;;;;;;5153495;27;20446;-74
2022/05/04 04:23:38;;;;;;;31.13;29.23;;;11.70;91.00;;;;;;5153548;27;20470;-75
2022/05/04 04:26:06;;;;;;;28.40;26.60;;;11.70;90.90;;;;;;5153249;27;20927;-75
2022/05/04 04:28:38;;;;;;;31.07;28.87;;;11.60;91.10;;;;;;5153451;27;20554;-74
2022/05/04 04:31:05;;;;;;;31.10;29.10;;;11.70;91.00;;;;;;5152419;27;20463;-75
2022/05/04 04:33:32;;;;;;;30.07;28.10;;;11.70;90.80;;;;;;5153243;27;20562;-74
2022/05/04 04:36:00;;;;;;;29.20;27.30;;;11.70;90.60;;;;;;5153250;27;20447;-74
2022/05/04 04:38:27;;;;;;;30.33;28.33;;;11.70;90.80;;;;;;5153250;27;20537;-74
2022/05/04 04:40:55;;;;;;;29.70;27.73;;;11.80;90.50;;;;;;5152523;27;21050;-75
2022/05/04 04:43:21;;;;;;;31.10;29.00;;;11.80;90.40;;;;;;5153429;27;20467;-74
2022/05/04 04:45:51;;;;;;;30.90;29.00;;;11.90;90.00;;;;;;5153087;27;20533;-74
2022/05/04 04:48:18;;;;;;;29.47;27.30;;;11.90;89.70;;;;;;5153268;27;20478;-74
2022/05/04 04:50:46;;;;;;;30.77;28.90;;;11.70;90.10;;;;;;5152714;27;20940;-74
2022/05/04 04:53:13;;;;;;;30.97;28.97;;;11.70;90.40;;;;;;5153007;27;20481;-74
2022/05/04 04:55:42;;;;;;;28.43;26.53;;;11.70;90.40;;;;;;5153208;27;20453;-74
2022/05/04 04:58:09;;;;;;;29.10;27.30;;;11.80;90.50;;;;;;5153085;27;20455;-74
2022/05/04 05:00:36;;;;;;;30.67;28.67;;;11.80;90.30;;;;;;5155636;27;20482;-75
2022/05/04 05:03:04;;;;;;;30.03;28.23;;;11.90;90.30;;;;;;5156825;27;20478;-75
2022/05/04 05:05:31;;;;;;;31.60;29.70;;;11.90;90.40;;;;;;5156804;27;20450;-74
2022/05/04 05:07:58;;;;;;;31.67;29.50;;;11.90;90.40;;;;;;5156692;27;20482;-74
2022/05/04 05:10:25;;;;;;;31.10;29.10;;;12.00;90.20;;;;;;5156076;27;20459;-74
2022/05/04 05:12:52;;;;;;;29.60;27.77;;;12.10;90.10;;;;;;5156647;27;21020;-75
2022/05/04 05:18:06;;;;;;;30.00;28.00;;;12.20;89.60;;;;;;5156668;27;20433;-75
2022/05/04 05:20:33;;;;;;;30.57;28.50;;;12.30;89.60;;;;;;5155865;27;21031;-75
2022/05/04 05:23:01;;;;;;;32.07;29.83;;;12.30;89.60;;;;;;5156353;27;20831;-74
2022/05/04 05:25:33;;;;;;;31.00;29.00;;;12.30;89.60;;;;;;5156281;27;20457;-75
2022/05/04 05:28:00;;;;;;;30.97;29.00;;;12.30;89.60;;;;;;5156250;27;20461;-75
2022/05/04 05:30:27;;;;;;;30.03;28.00;;;12.40;89.40;;;;;;5155158;27;20462;-75
2022/05/04 05:32:53;;;;;;;32.23;30.10;;;12.40;89.30;;;;;;5156207;27;20515;-74
2022/05/04 05:35:22;;;;;;;30.27;28.37;;;12.30;89.50;;;;;;5156045;27;20768;-75
2022/05/04 05:37:50;;;;;;;28.27;26.57;;;12.40;89.30;;;;;;5157053;27;20451;-75
2022/05/04 05:40:16;;;;;;;29.60;27.40;;;12.60;88.70;;;;;;5156318;27;20503;-74
2022/05/04 05:42:43;;;;;;;27.43;25.73;;;12.70;88.30;;;;;;5156135;27;20470;-75
2022/05/04 05:45:11;;;;;;;29.63;27.73;;;12.80;88.00;;;;;;5156035;27;20469;-74
2022/05/04 05:47:39;;;;;;;29.23;27.33;;;12.90;88.00;;;;;;5156110;27;20772;-74
2022/05/04 05:50:07;;;;;;;30.70;28.80;;;12.90;88.20;;;;;;5155218;27;20451;-75
2022/05/04 05:52:35;;;;;;;29.40;27.60;;;13.20;87.80;;;;;;5155988;27;20980;-75
2022/05/04 05:55:02;;;;;;;30.40;28.27;;;13.40;86.90;;;;;;5155891;27;20467;-74
2022/05/04 05:57:29;;;;;;;30.53;28.73;;;13.40;86.20;;;;;;5155742;27;20451;-75
2022/05/04 05:59:56;;;;;;;29.70;27.70;;;13.50;86.10;;;;;;5155148;27;20453;-75
2022/05/04 06:02:27;;;;;;;32.57;30.20;;;13.60;85.70;;;;;;5155503;27;21069;-74
2022/05/04 06:04:54;;;;;;;30.27;28.40;;;13.80;85.40;;;;;;5155730;27;20553;-74
2022/05/04 06:07:21;;;;;;;33.77;31.50;;;14.00;84.80;;;;;;5155876;27;20454;-74
2022/05/04 06:09:50;;;;;;;29.33;27.53;;;14.20;84.20;;;;;;5154500;27;20932;-75
2022/05/04 06:12:16;;;;;;;32.03;30.00;;;14.20;84.30;;;;;;5155218;27;20530;-74
2022/05/04 06:14:43;;;;;;;29.57;27.67;;;14.30;84.60;;;;;;5155236;27;20471;-75
2022/05/04 06:17:10;;;;;;;29.90;27.97;;;14.50;83.90;;;;;;5155433;27;20546;-74
2022/05/04 06:19:37;;;;;;;31.57;29.37;;;14.60;83.80;;;;;;5154791;27;20815;-74
2022/05/04 06:22:04;;;;;;;30.10;27.73;;;14.80;83.20;;;;;;5155027;27;20554;-75
2022/05/04 06:24:31;;;;;;;29.73;27.60;;;14.80;82.60;;;;;;5155251;27;20550;-74
2022/05/04 06:27:00;;;;;;;34.40;31.90;;;15.00;82.30;;;;;;5155067;27;20525;-74
2022/05/04 06:34:06;;;;;;;32.93;30.87;;;15.10;82.50;;;;;;5154588;27;20511;-74
2022/05/04 06:35:03;;;;;;;33.77;31.77;;;15.40;81.40;;;;;;5154645;27;20824;-75
2022/05/04 06:37:30;;;;;;;29.90;28.00;;;15.40;80.70;;;;;;5154952;27;20443;-75
2022/05/04 06:39:57;;;;;;;31.50;29.50;;;15.50;80.30;;;;;;5154449;27;20453;-75
2022/05/04 06:42:25;;;;;;;31.20;29.40;;;15.60;80.20;;;;;;5154929;27;20482;-75
2022/05/04 06:44:52;;;;;;;30.83;28.93;;;15.80;79.20;;;;;;5154964;27;20557;-75
2022/05/04 06:47:19;;;;;;;33.97;31.93;;;15.90;78.70;;;;;;5154758;27;20454;-75
2022/05/04 06:49:46;;;;;;;31.40;29.30;;;15.90;78.30;;;;;;5154194;27;20478;-75
2022/05/04 06:52:13;;;;;;;31.47;29.47;;;15.90;78.10;;;;;;5154695;27;20808;-75
2022/05/04 06:54:40;;;;;;;30.77;28.87;;;15.90;78.40;;;;;;5154482;27;20471;-75
2022/05/04 06:57:07;;;;;;;29.83;27.93;;;15.90;78.60;;;;;;5154947;27;20538;-75
2022/05/04 06:59:35;;;;;;;30.67;28.67;;;15.90;78.80;;;;;;5154071;27;20457;-75
2022/05/04 07:02:02;;;;;;;34.00;32.00;;;16.00;78.70;;;;;;5154722;27;20471;-75
2022/05/04 07:04:29;;;;;;;30.60;28.60;;;16.10;77.90;;;;;;5154535;27;20471;-75
2022/05/04 07:06:56;;;;;;;31.73;29.63;;;16.10;77.40;;;;;;5154452;27;20459;-75
2022/05/04 07:09:23;;;;;;;31.30;29.40;;;16.10;77.10;;;;;;5153978;27;20458;-75
2022/05/04 07:11:50;;;;;;;32.40;30.20;;;16.00;77.30;;;;;;5154345;27;20490;-75
2022/05/04 07:14:17;;;;;;;31.47;29.50;;;16.10;77.50;;;;;;5154186;27;20535;-75
2022/05/04 07:16:46;;;;;;;31.50;29.43;;;16.20;77.10;;;;;;5154178;27;20451;-75
2022/05/04 07:19:14;;;;;;;31.60;28.93;;;16.20;76.40;;;;;;5153686;27;20458;-75
2022/05/04 07:21:41;;;;;;;31.73;29.73;;;16.20;75.90;;;;;;5153639;27;20482;-75
2022/05/04 07:24:08;;;;;;;31.97;29.10;;;16.20;76.40;;;;;;5154142;27;20467;-75
2022/05/04 07:26:35;;;;;;;31.20;29.20;;;16.30;76.30;;;;;;5154042;27;20457;-75
2022/05/04 07:29:02;;;;;;;32.57;30.57;;;16.30;75.90;;;;;;5153954;27;20459;-75
2022/05/04 07:31:28;;;;;;;31.30;29.20;;;16.40;75.40;;;;;;5153099;27;20462;-75
2022/05/04 07:33:57;;;;;;;31.00;29.10;;;16.50;75.50;;;;;;5153990;27;20478;-75
2022/05/04 07:36:23;;;;;;;29.07;27.40;;;16.50;74.50;;;;;;5153910;27;20451;-75
2022/05/04 07:38:50;;;;;;;30.07;28.27;;;16.60;74.40;;;;;;5153661;27;20488;-75
2022/05/04 07:44:02;;;;;;;29.23;27.50;;;16.80;73.20;;;;;;5153839;27;20453;-75
2022/05/04 07:46:28;;;;;;;31.40;29.40;;;16.90;73.10;;;;;;5153950;27;20442;-75
2022/05/04 07:48:57;;;;;;;31.33;29.43;;;17.00;72.60;;;;;;5153690;27;20450;-75
2022/05/04 07:51:24;;;;;;;29.77;27.97;;;17.00;72.10;;;;;;5153422;27;20443;-75
2022/05/04 07:53:51;;;;;;;29.37;27.60;;;17.10;72.20;;;;;;5153613;27;20537;-75
2022/05/04 07:56:18;;;;;;;30.53;28.73;;;17.20;71.60;;;;;;5153651;27;20453;-75
2022/05/04 07:58:45;;;;;;;28.90;27.20;;;17.40;71.00;;;;;;5153756;27;20443;-75
2022/05/04 08:06:42;;;;;;;31.40;29.40;;;17.80;70.30;;;;;;5153790;27;20492;-75
2022/05/04 08:09:09;;;;;;;30.33;28.40;;;17.90;70.30;;;;;;5152929;27;20447;-75
2022/05/04 08:11:36;;;;;;;29.07;27.37;;;18.00;69.30;;;;;;5153647;27;20523;-75
2022/05/04 08:14:04;;;;;;;28.60;26.90;;;17.90;69.10;;;;;;5153880;27;20467;-75
2022/05/04 08:16:30;;;;;;;29.10;27.10;;;17.90;69.60;;;;;;5153647;27;20447;-75
2022/05/04 08:19:00;;;;;;;29.87;28.17;;;17.90;69.10;;;;;;5153436;27;20810;-75
2022/05/04 08:21:27;;;;;;;29.77;27.97;;;17.90;69.20;;;;;;5153154;27;20519;-75
2022/05/04 08:23:54;;;;;;;30.30;28.30;;;17.90;69.20;;;;;;5153202;27;20839;-75
2022/05/04 08:26:21;;;;;;;30.00;27.90;;;17.90;69.10;;;;;;5153480;27;20449;-75
2022/05/04 08:28:48;;;;;;;28.50;26.80;;;17.90;69.30;;;;;;5153550;27;20446;-75
2022/05/04 08:31:15;;;;;;;31.60;29.40;;;18.00;69.10;;;;;;5152367;27;20484;-75
2022/05/04 08:33:42;;;;;;;30.20;28.17;;;17.90;69.30;;;;;;5155113;27;20549;-75
2022/05/04 08:36:11;;;;;;;28.50;26.80;;;17.80;70.20;;;;;;5157258;27;21013;-75
2022/05/04 08:38:38;;;;;;;29.23;27.40;;;17.90;69.50;;;;;;5157197;27;20473;-75
2022/05/04 08:41:05;;;;;;;31.73;29.73;;;17.70;70.10;;;;;;5156755;27;20970;-75
2022/05/04 08:43:33;;;;;;;30.93;28.97;;;17.70;70.30;;;;;;5157152;27;20474;-75
2022/05/04 08:46:02;;;;;;;29.80;27.90;;;17.70;70.50;;;;;;5157100;27;20773;-75
2022/05/04 08:48:32;;;;;;;32.20;29.90;;;17.60;70.20;;;;;;5156963;27;20454;-75
2022/05/04 08:51:01;;;;;;;28.70;27.00;;;17.70;70.10;;;;;;5156577;27;20935;-75
2022/05/04 08:53:30;;;;;;;30.97;28.97;;;17.70;69.80;;;;;;5156881;27;20469;-75
2022/05/04 08:55:57;;;;;;;28.77;27.10;;;17.70;70.50;;;;;;5157191;27;20447;-75
2022/05/04 08:58:24;;;;;;;28.50;26.70;;;17.50;72.00;;;;;;5157037;27;20450;-75
2022/05/04 09:00:51;;;;;;;31.43;29.50;;;17.30;74.80;;;;;;5156450;27;20810;-75
2022/05/04 09:03:21;;;;;;;30.70;28.70;;;17.20;76.40;;;;;;5156873;27;20481;-75
2022/05/04 09:05:54;;;;;;;31.20;29.20;;;17.20;77.30;;;;;;5156789;27;20789;-75
2022/05/04 09:08:22;;;;;;;31.50;29.40;;;17.20;77.80;;;;;;5156673;27;20796;-75
2022/05/04 09:10:50;;;;;;;30.83;29.00;;;17.20;78.20;;;;;;5156314;27;20454;-75
2022/05/04 09:13:19;;;;;;;32.23;29.67;;;17.00;79.10;;;;;;5156646;27;20458;-75
2022/05/04 09:15:46;;;;;;;32.70;30.80;;;16.90;80.00;;;;;;5156582;27;20457;-75
2022/05/04 09:18:16;;;;;;;31.50;29.53;;;16.90;79.80;;;;;;5156494;27;20569;-75
2022/05/04 09:20:52;;;;;;;29.33;27.20;;;17.00;79.40;;;;;;5156219;27;20474;-75
2022/05/04 09:23:22;;;;;;;31.77;29.77;;;17.00;79.00;;;;;;5156572;27;20479;-75
2022/05/04 09:25:52;;;;;;;28.87;26.97;;;17.10;78.30;;;;;;5156478;27;20538;-75
2022/05/04 09:28:19;;;;;;;29.57;27.63;;;17.00;78.90;;;;;;5156245;27;20450;-75
2022/05/04 09:30:48;;;;;;;30.67;28.27;;;16.90;80.30;;;;;;5155520;27;21071;-75
2022/05/04 09:33:20;;;;;;;30.70;28.90;;;16.90;80.80;;;;;;5156405;27;20849;-75
2022/05/04 09:35:47;;;;;;;30.00;28.07;;;17.00;81.20;;;;;;5156114;27;20479;-75
2022/05/04 09:46:39;;;;;;;31.00;29.10;;;17.70;77.20;;;;;;5155430;27;20475;-75
2022/05/04 09:49:13;;;;;;;31.47;29.47;;;17.70;73.60;;;;;;5155759;27;20447;-75
2022/05/04 09:51:42;;;;;;;31.40;29.40;;;17.90;72.00;;;;;;5156009;27;20489;-75
2022/05/04 09:54:18;;;;;;;30.53;28.63;;;18.20;71.50;;;;;;5156016;27;20463;-75
2022/05/04 09:56:51;;;;;;;31.90;29.63;;;18.50;71.50;;;;;;5155997;27;20927;-75
2022/05/04 09:59:20;;;;;;;32.90;30.33;;;19.10;70.90;;;;;;5155932;27;20807;-76
2022/05/04 10:01:48;;;;;;;33.00;30.90;;;19.30;70.70;;;;;;5156897;27;20470;-76
2022/05/04 10:04:15;;;;;;;35.60;33.03;;;19.70;69.90;;;;;;5156391;27;21051;-75
2022/05/04 10:06:43;;;;;;;32.47;30.27;;;19.90;68.80;;;;;;5155662;27;20834;-75
2022/05/04 10:09:10;;;;;;;31.93;30.03;;;20.00;66.90;;;;;;5154959;27;20447;-75
2022/05/04 10:11:39;;;;;;;33.97;31.77;;;20.30;66.70;;;;;;5155651;27;20526;-75
2022/05/04 10:14:10;;;;;;;33.63;31.53;;;20.50;66.20;;;;;;5155215;27;20471;-75
2022/05/04 10:16:43;;;;;;;34.13;31.70;;;20.80;65.60;;;;;;5155449;27;20462;-75
2022/05/04 10:19:19;;;;;;;35.43;33.13;;;20.90;65.80;;;;;;5154884;27;20450;-75
2022/05/04 10:21:51;;;;;;;33.60;31.50;;;20.80;66.10;;;;;;5155371;27;20462;-75
2022/05/04 10:24:20;;;;;;;33.77;31.67;;;20.70;66.50;;;;;;5154951;27;20508;-75
2022/05/04 10:26:47;;;;;;;34.73;32.20;;;20.60;66.30;;;;;;5155339;27;20469;-75
2022/05/04 10:32:34;;;;;;;32.90;30.57;;;20.30;67.70;;;;;;5155267;27;20507;-75
2022/05/04 10:35:23;;;;;;;33.90;31.80;;;20.60;65.60;;;;;;5154905;27;20467;-75
2022/05/04 10:38:15;;;;;;;34.37;32.17;;;20.80;65.20;;;;;;5155095;27;20990;-75
2022/05/04 10:40:46;;;;;;;33.60;31.50;;;20.60;66.50;;;;;;5154551;27;20455;-75
2022/05/04 10:43:14;;;;;;;34.67;32.37;;;20.70;65.60;;;;;;5154699;27;20470;-75
2022/05/04 10:45:44;;;;;;;35.40;32.90;;;20.80;65.50;;;;;;5154856;27;20458;-75
2022/05/04 10:48:29;;;;;;;35.40;33.00;;;21.10;64.80;;;;;;5154971;27;20858;-75
2022/05/04 10:51:03;;;;;;;34.03;31.60;;;21.50;62.30;;;;;;5154419;27;20462;-75
2022/05/04 10:53:44;;;;;;;33.50;31.20;;;21.50;61.80;;;;;;5154989;27;20549;-75
2022/05/04 10:56:14;;;;;;;33.53;31.33;;;21.50;62.00;;;;;;5154602;27;20538;-75
2022/05/04 10:58:49;;;;;;;34.30;31.90;;;21.70;61.70;;;;;;5154691;27;20450;-75
2022/05/04 11:01:20;;;;;;;34.67;32.37;;;21.60;60.70;;;;;;5154090;27;20454;-75
2022/05/04 11:04:18;;;;;;;37.53;35.43;;;21.70;60.90;;;;;;5154468;27;20897;-75
2022/05/04 11:06:51;;;;;;;36.40;34.27;;;21.70;60.70;;;;;;5154636;27;20487;-75
2022/05/04 11:09:19;;;;;;;35.40;33.40;;;21.90;59.70;;;;;;5153920;27;20451;-75
2022/05/04 11:11:48;;;;;;;34.63;32.50;;;22.00;59.20;;;;;;5154441;27;20951;-75
2022/05/04 11:14:22;;;;;;;32.07;30.17;;;22.20;58.70;;;;;;5154178;27;20466;-75
2022/05/04 11:16:52;;;;;;;31.57;29.67;;;21.90;59.20;;;;;;5154375;27;20446;-75
2022/05/04 11:19:19;;;;;;;32.10;29.90;;;21.90;58.80;;;;;;5153640;27;20935;-75
2022/05/04 11:21:47;;;;;;;30.50;28.60;;;22.00;58.30;;;;;;5154217;27;20481;-75
2022/05/04 11:24:15;;;;;;;32.67;30.43;;;22.00;57.90;;;;;;5153983;27;20479;-75
2022/05/04 11:26:44;;;;;;;31.10;29.30;;;21.90;57.90;;;;;;5154073;27;20471;-75
2022/05/04 11:29:13;;;;;;;30.90;28.90;;;21.90;58.00;;;;;;5153448;27;20545;-75
2022/05/04 11:31:43;;;;;;;33.47;31.23;;;21.90;57.40;;;;;;5153503;27;21008;-75
2022/05/04 11:34:17;;;;;;;31.20;29.40;;;22.10;57.00;;;;;;5154116;27;20913;-75
2022/05/04 11:36:46;;;;;;;29.87;28.07;;;22.20;55.30;;;;;;5153905;27;20530;-75
2022/05/04 11:39:18;;;;;;;31.13;29.13;;;22.10;55.20;;;;;;5153410;27;20459;-75
2022/05/04 11:41:46;;;;;;;30.47;28.50;;;21.80;55.70;;;;;;5153924;27;20458;-75
2022/05/04 11:44:13;;;;;;;30.60;28.50;;;21.80;56.20;;;;;;5153904;27;20821;-75
2022/05/04 11:46:40;;;;;;;32.13;30.23;;;21.60;56.30;;;;;;5152960;27;20509;-75
2022/05/04 11:49:09;;;;;;;33.50;31.40;;;21.40;56.80;;;;;;5153586;27;20450;-75
2022/05/04 11:51:38;;;;;;;31.63;29.73;;;21.30;57.10;;;;;;5153974;27;20478;-75
2022/05/04 11:54:06;;;;;;;30.20;28.30;;;21.20;57.30;;;;;;5153799;27;20463;-75
2022/05/04 11:56:34;;;;;;;29.60;27.80;;;21.20;56.90;;;;;;5153601;27;20447;-75
2022/05/04 11:59:01;;;;;;;30.57;28.77;;;21.10;57.20;;;;;;5153696;27;20470;-75
2022/05/04 12:01:28;;;;;;;31.00;29.10;;;21.00;57.30;;;;;;5153376;27;20454;-75
2022/05/04 12:03:56;;;;;;;30.17;28.37;;;21.10;57.40;;;;;;5153671;27;20485;-75
2022/05/04 12:06:24;;;;;;;29.70;27.90;;;21.10;57.60;;;;;;5153941;27;20443;-75
2022/05/04 12:08:53;;;;;;;29.87;28.07;;;21.30;57.20;;;;;;5155408;27;20794;-75
2022/05/04 12:11:22;;;;;;;30.80;28.80;;;21.50;56.20;;;;;;5157476;27;20482;-75
2022/05/04 12:13:49;;;;;;;31.60;29.57;;;21.40;56.10;;;;;;5157863;27;20505;-75
2022/05/04 12:16:16;;;;;;;32.90;30.90;;;21.30;56.50;;;;;;5157869;27;20449;-75
2022/05/04 12:18:43;;;;;;;29.57;27.80;;;21.30;56.50;;;;;;5157757;27;20478;-75
2022/05/04 12:21:12;;;;;;;30.80;29.03;;;21.10;56.60;;;;;;5156931;27;20454;-75
2022/05/04 12:23:42;;;;;;;30.47;28.57;;;21.10;56.90;;;;;;5157794;27;20479;-75
2022/05/04 12:26:13;;;;;;;29.70;27.90;;;21.50;56.40;;;;;;5157456;27;20932;-75
2022/05/04 12:28:41;;;;;;;31.40;29.60;;;21.80;56.20;;;;;;5157501;27;20447;-75
2022/05/04 12:34:05;;;;;;;33.53;31.30;;;22.40;55.50;;;;;;5093641;28;20453;-75
2022/05/04 12:36:32;;;;;;;29.60;27.80;;;22.50;53.30;;;;;;5141749;27;20541;-75
2022/05/04 12:38:59;;;;;;;30.83;28.83;;;22.40;53.10;;;;;;5157269;27;20443;-75
2022/05/04 12:41:27;;;;;;;30.83;28.80;;;22.40;52.90;;;;;;5156975;27;20442;-75
2022/05/04 12:43:54;;;;;;;29.90;28.07;;;21.70;53.90;;;;;;5157184;27;20489;-75
2022/05/04 12:46:21;;;;;;;29.03;27.13;;;21.60;54.80;;;;;;5157114;27;20451;-75
2022/05/04 12:48:49;;;;;;;31.83;29.83;;;21.90;54.40;;;;;;5157114;27;20453;-75
2022/05/04 12:51:18;;;;;;;29.90;28.10;;;22.10;53.80;;;;;;5156724;27;20546;-75
2022/05/04 12:53:47;;;;;;;29.70;27.80;;;22.30;53.00;;;;;;5157198;27;20469;-75
2022/05/04 12:59:01;;;;;;;29.30;27.30;;;22.80;52.80;;;;;;5157075;27;20434;-75
2022/05/04 13:01:30;;;;;;;29.77;27.87;;;23.00;52.90;;;;;;5156511;27;20473;-75
2022/05/04 13:03:56;;;;;;;29.80;27.80;;;23.00;51.50;;;;;;5156758;27;20531;-75
2022/05/04 13:06:24;;;;;;;29.10;27.17;;;23.00;51.50;;;;;;5156965;27;20537;-75
2022/05/04 13:08:51;;;;;;;28.10;26.30;;;22.90;52.10;;;;;;5156633;27;20455;-75
2022/05/04 13:11:18;;;;;;;28.23;26.63;;;23.00;52.50;;;;;;5156232;27;20447;-75
2022/05/04 13:13:45;;;;;;;31.10;29.10;;;23.10;52.40;;;;;;5156746;27;20463;-75
2022/05/04 13:16:15;;;;;;;30.93;29.13;;;23.40;52.30;;;;;;5156688;27;20480;-75